createdAt,value
2023-08-06T00:01:04.169Z,97387.22
2023-08-06T00:03:31.626Z,97377.03
2023-08-06T00:05:58.811Z,97373.47
2023-08-06T00:08:25.586Z,97384.81
2023-08-06T00:11:11.768Z,97383.22
2023-08-06T00:13:38.562Z,97390.66
2023-08-06T00:16:13.606Z,97386.31
2023-08-06T00:18:41.816Z,97386.66
2023-08-06T00:21:09.256Z,97391.00
2023-08-06T00:23:36.027Z,97392.97
2023-08-06T00:26:03.142Z,97394.09
2023-08-06T00:28:30.812Z,97394.44
2023-08-06T00:30:57.842Z,97390.88
2023-08-06T00:33:25.257Z,97392.97
2023-08-06T00:35:52.786Z,97385.38
2023-08-06T00:38:19.562Z,97396.72
2023-08-06T00:40:46.700Z,97400.75
2023-08-06T00:43:14.395Z,97397.06
2023-08-06T00:45:41.566Z,97402.13
2023-08-06T00:48:08.937Z,97402.91
2023-08-06T00:50:36.504Z,97404.88
2023-08-06T00:53:03.470Z,97402.13
2023-08-06T00:55:30.970Z,97399.81
2023-08-06T00:57:58.508Z,97397.06
2023-08-06T01:00:26.155Z,97392.72
2023-08-06T01:02:54.660Z,97394.97
2023-08-06T01:05:24.057Z,97392.72
2023-08-06T01:08:10.131Z,97385.59
2023-08-06T01:11:06.413Z,97381.91
2023-08-06T01:13:47.635Z,97382.38
2023-08-06T01:16:18.550Z,97379.16
2023-08-06T01:18:50.693Z,97381.56
2023-08-06T01:21:18.486Z,97379.50
2023-08-06T01:23:47.171Z,97381.78
2023-08-06T01:26:17.378Z,97390.03
2023-08-06T01:29:12.014Z,97384.06
2023-08-06T01:31:40.742Z,97388.75
2023-08-06T01:34:15.136Z,97389.75
2023-08-06T01:36:43.117Z,97388.94
2023-08-06T01:39:10.538Z,97383.78
2023-08-06T01:41:37.772Z,97393.19
2023-08-06T01:44:05.065Z,97384.94
2023-08-06T01:46:32.288Z,97384.25
2023-08-06T01:48:59.433Z,97376.34
2023-08-06T01:51:26.828Z,97386.87
2023-08-06T01:53:53.600Z,97383.31
2023-08-06T01:56:20.765Z,97378.63
2023-08-06T01:58:47.882Z,97379.78
2023-08-06T02:01:14.978Z,97371.06
2023-08-06T02:03:41.930Z,97369.09
2023-08-06T02:06:09.453Z,97366.34
2023-08-06T02:08:36.206Z,97363.13
2023-08-06T02:11:04.241Z,97361.03
2023-08-06T02:13:31.496Z,97359.91
2023-08-06T02:15:58.661Z,97357.50
2023-08-06T02:18:25.494Z,97351.53
2023-08-06T02:21:00.254Z,97347.97
2023-08-06T02:23:27.828Z,97344.88
2023-08-06T02:25:59.688Z,97337.44
2023-08-06T02:28:26.900Z,97340.84
2023-08-06T02:30:54.264Z,97348.78
2023-08-06T02:33:21.469Z,97345.22
2023-08-06T02:35:48.792Z,97358.97
2023-08-06T02:38:15.671Z,97368.72
2023-08-06T02:40:47.138Z,97358.03
2023-08-06T02:43:14.765Z,97353.69
2023-08-06T02:45:42.031Z,97355.63
2023-08-06T02:48:09.233Z,97339.13
2023-08-06T02:50:40.681Z,97338.31
2023-08-06T02:53:11.162Z,97338.31
2023-08-06T02:55:38.255Z,97326.84
2023-08-06T02:58:05.415Z,97318.59
2023-08-06T03:00:32.252Z,97317.81
2023-08-06T03:02:59.696Z,97315.41
2023-08-06T03:05:26.817Z,97307.16
2023-08-06T03:07:53.676Z,97314.59
2023-08-06T03:10:21.485Z,97310.22
2023-08-06T03:12:48.909Z,97316.88
2023-08-06T03:15:16.412Z,97307.47
2023-08-06T03:17:43.283Z,97306.69
2023-08-06T03:20:10.424Z,97312.19
2023-08-06T03:22:37.944Z,97301.53
2023-08-06T03:25:05.311Z,97307.81
2023-08-06T03:27:32.404Z,97307.34
2023-08-06T03:30:01.675Z,97315.16
2023-08-06T03:32:28.824Z,97312.41
2023-08-06T03:34:55.599Z,97306.91
2023-08-06T03:37:22.831Z,97316.75
2023-08-06T03:39:49.904Z,97323.06
2023-08-06T03:42:16.638Z,97319.50
2023-08-06T03:44:44.052Z,97325.34
2023-08-06T03:47:10.835Z,97320.66
2023-08-06T03:49:38.225Z,97325.34
2023-08-06T03:52:05.691Z,97321.62
2023-08-06T03:54:33.214Z,97329.09
2023-08-06T03:57:00.039Z,97327.47
2023-08-06T03:59:27.204Z,97323.13
2023-08-06T04:01:54.486Z,97316.00
2023-08-06T04:04:21.792Z,97310.06
2023-08-06T04:06:48.615Z,97322.66
2023-08-06T04:09:15.685Z,97331.13
2023-08-06T04:11:42.987Z,97329.97
2023-08-06T04:14:10.089Z,97338.22
2023-08-06T04:16:37.211Z,97330.31
2023-08-06T04:19:04.355Z,97334.88
2023-08-06T04:21:31.428Z,97333.41
2023-08-06T04:23:58.534Z,97326.28
2023-08-06T04:26:25.956Z,97338.56
2023-08-06T04:28:52.788Z,97338.56
2023-08-06T04:31:19.838Z,97334.22
2023-08-06T04:33:46.939Z,97343.72
2023-08-06T04:36:14.181Z,97339.03
2023-08-06T04:38:46.057Z,97342.13
2023-08-06T04:41:12.867Z,97348.09
2023-08-06T04:43:40.318Z,97342.91
2023-08-06T04:46:08.073Z,97345.53
2023-08-06T04:48:35.193Z,97343.25
2023-08-06T04:51:02.288Z,97338.22
2023-08-06T04:53:29.059Z,97343.72
2023-08-06T04:55:56.248Z,97342.59
2023-08-06T04:58:23.328Z,97348.09
2023-08-06T05:00:50.335Z,97360.22
2023-08-06T05:03:17.857Z,97361.81
2023-08-06T05:05:45.263Z,97369.28
2023-08-06T05:08:17.177Z,97361.03
2023-08-06T05:10:46.118Z,97362.97
2023-08-06T05:13:13.189Z,97361.81
2023-08-06T05:15:43.913Z,97358.28
2023-08-06T05:18:12.706Z,97354.72
2023-08-06T05:20:43.901Z,97353.56
2023-08-06T05:23:10.698Z,97355.19
2023-08-06T05:25:41.624Z,97354.38
2023-08-06T05:28:08.806Z,97348.41
2023-08-06T05:30:40.079Z,97354.72
2023-08-06T05:33:07.693Z,97346.13
2023-08-06T05:35:34.801Z,97351.28
2023-08-06T05:38:01.965Z,97350.97
2023-08-06T05:40:28.708Z,97352.56
2023-08-06T05:42:56.680Z,97349.00
2023-08-06T05:45:23.774Z,97352.91
2023-08-06T05:47:51.010Z,97356.13
2023-08-06T05:50:18.625Z,97361.63
2023-08-06T05:52:45.457Z,97357.72
2023-08-06T05:55:12.698Z,97345.59
2023-08-06T05:57:39.833Z,97350.75
2023-08-06T06:00:08.495Z,97345.75
2023-08-06T06:02:35.634Z,97342.16
2023-08-06T06:05:02.747Z,97344.09
2023-08-06T06:07:29.820Z,97352.50
2023-08-06T06:09:56.935Z,97354.13
2023-08-06T06:12:24.128Z,97352.62
2023-08-06T06:14:51.522Z,97353.44
2023-08-06T06:17:18.593Z,97342.09
2023-08-06T06:19:45.433Z,97350.81
2023-08-06T06:22:12.796Z,97353.22
2023-08-06T06:24:39.628Z,97345.78
2023-08-06T06:27:07.183Z,97350.13
2023-08-06T06:29:53.977Z,97347.03
2023-08-06T06:32:22.188Z,97343.94
2023-08-06T06:34:49.265Z,97343.16
2023-08-06T06:37:16.708Z,97350.25
2023-08-06T06:39:44.016Z,97343.16
2023-08-06T06:42:10.824Z,97349.44
2023-08-06T06:44:38.343Z,97342.00
2023-08-06T06:47:06.154Z,97335.22
2023-08-06T06:49:33.465Z,97338.44
2023-08-06T06:52:00.289Z,97334.44
2023-08-06T06:54:27.401Z,97335.22
2023-08-06T06:56:54.506Z,97339.94
2023-08-06T06:59:21.628Z,97341.53
2023-08-06T07:01:49.028Z,97339.25
2023-08-06T07:04:16.157Z,97346.03
2023-08-06T07:06:43.718Z,97353.12
2023-08-06T07:09:13.518Z,97356.34
2023-08-06T07:11:40.820Z,97373.34
2023-08-06T07:14:09.295Z,97370.25
2023-08-06T07:16:36.220Z,97367.41
2023-08-06T07:19:03.695Z,97366.41
2023-08-06T07:21:30.481Z,97366.88
2023-08-06T07:23:57.656Z,97369.28
2023-08-06T07:26:25.154Z,97371.34
2023-08-06T07:28:52.039Z,97367.78
2023-08-06T07:31:19.146Z,97370.22
2023-08-06T07:33:46.373Z,97378.16
2023-08-06T07:36:15.346Z,97380.22
2023-08-06T07:38:42.599Z,97386.19
2023-08-06T07:41:10.660Z,97381.16
2023-08-06T07:43:37.914Z,97382.75
2023-08-06T07:46:05.210Z,97374.16
2023-08-06T07:48:32.082Z,97384.81
2023-08-06T07:50:59.566Z,97380.13
2023-08-06T07:53:30.762Z,97383.69
2023-08-06T07:55:58.203Z,97379.09
2023-08-06T07:58:26.855Z,97389.31
2023-08-06T08:00:54.099Z,97377.94
2023-08-06T08:03:21.092Z,97381.16
2023-08-06T08:05:48.812Z,97379.66
2023-08-06T08:08:15.696Z,97380.97
2023-08-06T08:10:43.210Z,97371.66
2023-08-06T08:13:11.548Z,97378.09
2023-08-06T08:15:38.346Z,97379.03
2023-08-06T08:18:05.540Z,97378.44
2023-08-06T08:20:33.096Z,97370.22
2023-08-06T08:23:04.207Z,97375.03
2023-08-06T08:25:32.885Z,97380.66
2023-08-06T08:28:00.068Z,97378.47
2023-08-06T08:30:27.914Z,97377.44
2023-08-06T08:32:55.229Z,97378.41
2023-08-06T08:35:22.344Z,97373.00
2023-08-06T08:37:50.350Z,97374.72
2023-08-06T08:40:17.931Z,97372.88
2023-08-06T08:42:45.181Z,97381.25
2023-08-06T08:45:21.909Z,97378.28
2023-08-06T08:47:49.753Z,97385.50
2023-08-06T08:50:19.559Z,97371.03
2023-08-06T08:52:47.013Z,97377.91
2023-08-06T08:55:16.775Z,97388.34
2023-08-06T08:57:44.789Z,97395.59
2023-08-06T09:00:12.165Z,97392.94
2023-08-06T09:02:40.667Z,97382.44
2023-08-06T09:05:09.465Z,97390.12
2023-08-06T09:07:49.584Z,97397.38
2023-08-06T09:10:20.439Z,97384.94
2023-08-06T09:12:48.185Z,97388.25
2023-08-06T09:15:15.567Z,97388.84
2023-08-06T09:17:42.418Z,97392.97
2023-08-06T09:20:28.682Z,97382.50
2023-08-06T09:22:55.540Z,97379.91
2023-08-06T09:25:25.932Z,97385.97
2023-08-06T09:27:53.429Z,97382.62
2023-08-06T09:30:35.461Z,97382.38
2023-08-06T09:33:02.685Z,97377.41
2023-08-06T09:35:33.455Z,97381.06
2023-08-06T09:38:18.406Z,97391.84
2023-08-06T09:40:45.655Z,97390.44
2023-08-06T09:43:13.299Z,97400.06
2023-08-06T09:45:40.194Z,97394.63
2023-08-06T09:48:09.418Z,97392.41
2023-08-06T09:50:39.176Z,97389.75
2023-08-06T09:53:08.482Z,97391.12
2023-08-06T09:55:36.049Z,97392.09
2023-08-06T09:58:03.625Z,97391.84
2023-08-06T10:00:32.468Z,97393.06
2023-08-06T10:03:02.526Z,97397.13
2023-08-06T10:05:32.887Z,97393.63
2023-08-06T10:08:00.933Z,97391.69
2023-08-06T10:10:29.370Z,97404.78
2023-08-06T10:12:59.624Z,97401.22
2023-08-06T10:15:30.433Z,97400.03
2023-08-06T10:18:00.547Z,97398.53
2023-08-06T10:20:28.071Z,97401.75
2023-08-06T10:23:02.771Z,97404.94
2023-08-06T10:25:35.238Z,97417.59
2023-08-06T10:28:10.518Z,97414.84
2023-08-06T10:30:46.676Z,97416.81
2023-08-06T10:33:13.998Z,97417.59
2023-08-06T10:35:52.452Z,97426.63
2023-08-06T10:38:24.083Z,97425.47
2023-08-06T10:41:05.079Z,97419.13
2023-08-06T10:43:32.211Z,97433.31
2023-08-06T10:46:01.741Z,97433.66
2023-08-06T10:48:42.857Z,97433.66
2023-08-06T10:51:11.836Z,97436.78
2023-08-06T10:53:43.021Z,97438.31
2023-08-06T10:56:23.909Z,97437.50
2023-08-06T10:58:53.040Z,97440.53
2023-08-06T11:01:20.736Z,97455.03
2023-08-06T11:03:50.445Z,97458.50
2023-08-06T11:06:22.392Z,97460.03
2023-08-06T11:08:55.017Z,97463.94
2023-08-06T11:11:24.803Z,97472.94
2023-08-06T11:13:53.156Z,97475.63
2023-08-06T11:16:24.818Z,97481.84
2023-08-06T11:18:54.071Z,97481.38
2023-08-06T11:21:22.799Z,97485.66
2023-08-06T11:23:50.504Z,97487.13
2023-08-06T11:26:21.829Z,97485.87
2023-08-06T11:28:48.747Z,97489.00
2023-08-06T11:31:23.032Z,97491.66
2023-08-06T11:33:57.236Z,97484.53
2023-08-06T11:36:34.750Z,97494.34
2023-08-06T11:39:03.961Z,97494.69
2023-08-06T11:41:31.807Z,97489.50
2023-08-06T11:44:00.120Z,97496.66
2023-08-06T11:46:27.674Z,97498.97
2023-08-06T11:48:59.914Z,97494.13
2023-08-06T11:51:28.113Z,97504.38
2023-08-06T11:53:59.513Z,97492.87
2023-08-06T11:56:27.675Z,97505.84
2023-08-06T11:58:57.174Z,97505.41
2023-08-06T12:01:24.567Z,97500.25
2023-08-06T12:03:51.418Z,97503.34
2023-08-06T12:06:18.963Z,97501.28
2023-08-06T12:08:45.954Z,97513.50
2023-08-06T12:11:13.366Z,97515.69
2023-08-06T12:13:40.433Z,97513.53
2023-08-06T12:16:07.596Z,97514.22
2023-08-06T12:18:34.846Z,97516.97
2023-08-06T12:21:02.054Z,97511.44
2023-08-06T12:23:28.807Z,97521.81
2023-08-06T12:25:56.240Z,97514.81
2023-08-06T12:28:24.121Z,97524.69
2023-08-06T12:30:52.063Z,97524.34
2023-08-06T12:33:20.479Z,97525.25
2023-08-06T12:35:47.843Z,97519.81
2023-08-06T12:38:14.833Z,97534.06
2023-08-06T12:40:43.951Z,97523.03
2023-08-06T12:43:11.290Z,97532.22
2023-08-06T12:45:38.080Z,97526.69
2023-08-06T12:48:05.903Z,97527.50
2023-08-06T12:50:34.091Z,97523.25
2023-08-06T12:53:01.997Z,97534.75
2023-08-06T12:55:31.893Z,97524.97
2023-08-06T12:58:00.431Z,97526.69
2023-08-06T13:00:27.942Z,97527.94
2023-08-06T13:02:55.631Z,97537.13
2023-08-06T13:05:23.028Z,97536.31
2023-08-06T13:07:50.491Z,97535.16
2023-08-06T13:10:17.904Z,97528.91
2023-08-06T13:12:45.723Z,97525.00
2023-08-06T13:15:15.951Z,97534.91
2023-08-06T13:17:43.352Z,97527.41
2023-08-06T13:20:11.743Z,97533.88
2023-08-06T13:22:39.196Z,97525.25
2023-08-06T13:25:06.375Z,97523.75
2023-08-06T13:27:34.020Z,97536.41
2023-08-06T13:30:01.951Z,97539.97
2023-08-06T13:32:29.134Z,97534.91
2023-08-06T13:34:56.541Z,97544.44
2023-08-06T13:37:24.200Z,97546.03
2023-08-06T13:39:51.267Z,97549.25
2023-08-06T13:42:18.826Z,97548.91
2023-08-06T13:44:46.277Z,97549.00
2023-08-06T13:47:13.506Z,97538.38
2023-08-06T13:52:28.386Z,97542.97
2023-08-06T13:54:55.819Z,97543.50
2023-08-06T13:57:22.891Z,97536.56
2023-08-06T13:59:50.792Z,97533.56
2023-08-06T14:02:18.627Z,97534.53
2023-08-06T14:04:46.438Z,97532.84
2023-08-06T14:07:13.691Z,97536.69
2023-08-06T14:09:41.796Z,97538.50
2023-08-06T14:12:08.961Z,97541.09
2023-08-06T14:14:38.239Z,97546.44
2023-08-06T14:17:06.103Z,97543.03
2023-08-06T14:19:33.602Z,97559.81
2023-08-06T14:22:01.288Z,97560.72
2023-08-06T14:24:29.301Z,97563.22
2023-08-06T14:26:57.038Z,97571.25
2023-08-06T14:29:24.595Z,97560.59
2023-08-06T14:31:53.027Z,97571.41
2023-08-06T14:34:20.629Z,97571.84
2023-08-06T14:36:50.037Z,97566.03
2023-08-06T14:39:17.849Z,97565.41
2023-08-06T14:41:46.289Z,97564.78
2023-08-06T14:44:13.432Z,97556.66
2023-08-06T14:46:41.206Z,97549.66
2023-08-06T14:49:08.509Z,97550.59
2023-08-06T14:51:35.977Z,97556.66
2023-08-06T14:54:03.623Z,97556.03
2023-08-06T14:56:31.407Z,97553.75
2023-08-06T14:58:58.918Z,97555.44
2023-08-06T15:01:26.569Z,97561.91
2023-08-06T15:03:55.325Z,97563.94
2023-08-06T15:06:23.198Z,97563.69
2023-08-06T15:08:50.426Z,97563.00
2023-08-06T15:11:18.101Z,97575.00
2023-08-06T15:13:45.572Z,97567.13
2023-08-06T15:16:13.595Z,97563.97
2023-08-06T15:18:41.436Z,97574.69
2023-08-06T15:21:09.155Z,97562.44
2023-08-06T15:23:37.535Z,97568.41
2023-08-06T15:26:04.996Z,97571.19
2023-08-06T15:28:32.751Z,97583.56
2023-08-06T15:31:00.614Z,97575.59
2023-08-06T15:33:28.076Z,97578.38
2023-08-06T15:35:54.993Z,97589.00
2023-08-06T15:38:22.133Z,97590.53
2023-08-06T15:40:49.999Z,97589.75
2023-08-06T15:43:17.110Z,97591.63
2023-08-06T15:45:44.195Z,97594.75
2023-08-06T15:48:12.236Z,97589.94
2023-08-06T15:50:40.406Z,97597.03
2023-08-06T15:53:08.174Z,97596.16
2023-08-06T15:55:38.868Z,97598.47
2023-08-06T15:58:06.914Z,97614.31
2023-08-06T16:00:35.145Z,97610.63
2023-08-06T16:03:04.226Z,97618.16
2023-08-06T16:05:32.666Z,97616.91
2023-08-06T16:08:00.863Z,97618.06
2023-08-06T16:10:27.940Z,97622.37
2023-08-06T16:12:55.141Z,97625.88
2023-08-06T16:15:23.433Z,97629.38
2023-08-06T16:17:50.896Z,97631.34
2023-08-06T16:20:19.118Z,97630.91
2023-08-06T16:22:47.217Z,97635.22
2023-08-06T16:25:14.741Z,97633.63
2023-08-06T16:27:43.027Z,97632.72
2023-08-06T16:30:10.897Z,97632.25
2023-08-06T16:32:38.981Z,97636.19
2023-08-06T16:35:08.463Z,97634.59
2023-08-06T16:37:36.010Z,97635.41
2023-08-06T16:40:06.093Z,97635.75
2023-08-06T16:42:33.498Z,97643.28
2023-08-06T16:45:02.428Z,97643.63
2023-08-06T16:47:30.104Z,97644.81
2023-08-06T16:49:59.044Z,97640.44
2023-08-06T16:52:26.585Z,97649.09
2023-08-06T16:54:54.117Z,97643.91
2023-08-06T16:57:22.081Z,97643.47
2023-08-06T16:59:49.908Z,97646.63
2023-08-06T17:02:17.712Z,97654.13
2023-08-06T17:04:48.302Z,97648.59
2023-08-06T17:07:15.641Z,97648.13
2023-08-06T17:09:44.008Z,97646.53
2023-08-06T17:12:11.620Z,97642.53
2023-08-06T17:14:39.017Z,97644.81
2023-08-06T17:17:06.841Z,97654.28
2023-08-06T17:19:34.122Z,97666.53
2023-08-06T17:22:02.478Z,97668.78
2023-08-06T17:24:29.645Z,97671.88
2023-08-06T17:27:00.350Z,97670.28
2023-08-06T17:29:27.918Z,97669.84
2023-08-06T17:31:55.711Z,97676.09
2023-08-06T17:34:23.678Z,97674.47
2023-08-06T17:36:51.029Z,97677.63
2023-08-06T17:39:18.686Z,97679.81
2023-08-06T17:41:48.247Z,97683.75
2023-08-06T17:44:16.564Z,97688.50
2023-08-06T17:46:44.277Z,97688.84
2023-08-06T17:49:12.225Z,97694.31
2023-08-06T17:51:39.613Z,97704.13
2023-08-06T17:54:08.602Z,97705.28
2023-08-06T17:56:36.582Z,97705.66
2023-08-06T17:59:04.258Z,97692.88
2023-08-06T18:01:31.660Z,97692.78
2023-08-06T18:03:59.294Z,97693.47
2023-08-06T18:06:26.917Z,97695.78
2023-08-06T18:08:54.080Z,97701.16
2023-08-06T18:11:21.643Z,97719.19
2023-08-06T18:13:50.956Z,97716.69
2023-08-06T18:16:18.362Z,97719.78
2023-08-06T18:18:45.887Z,97722.34
2023-08-06T18:21:15.390Z,97728.94
2023-08-06T18:23:42.995Z,97725.94
2023-08-06T18:26:10.408Z,97728.19
2023-08-06T18:28:37.989Z,97732.31
2023-08-06T18:31:05.481Z,97735.34
2023-08-06T18:33:33.236Z,97739.88
2023-08-06T18:36:00.988Z,97741.72
2023-08-06T18:38:28.548Z,97745.16
2023-08-06T18:40:59.697Z,97757.28
2023-08-06T18:43:29.221Z,97754.06
2023-08-06T18:45:57.574Z,97760.63
2023-08-06T18:48:26.327Z,97766.41
2023-08-06T18:50:55.351Z,97771.34
2023-08-06T18:53:23.162Z,97764.69
2023-08-06T18:55:52.353Z,97767.69
2023-08-06T18:58:20.091Z,97773.13
2023-08-06T19:00:48.625Z,97771.00
2023-08-06T19:03:16.100Z,97769.25
2023-08-06T19:05:44.801Z,97781.34
2023-08-06T19:08:15.335Z,97785.63
2023-08-06T19:10:42.592Z,97784.25
2023-08-06T19:13:12.991Z,97785.38
2023-08-06T19:15:45.967Z,97780.41
2023-08-06T19:18:13.621Z,97775.22
2023-08-06T19:20:45.658Z,97778.69
2023-08-06T19:23:21.742Z,97772.72
2023-08-06T19:25:50.398Z,97770.19
2023-08-06T19:28:18.659Z,97773.28
2023-08-06T19:30:45.902Z,97759.81
2023-08-06T19:33:17.524Z,97781.00
2023-08-06T19:35:50.588Z,97780.38
2023-08-06T19:38:23.563Z,97780.25
2023-08-06T19:40:51.596Z,97778.19
2023-08-06T19:43:19.679Z,97781.19
2023-08-06T19:45:50.804Z,97792.91
2023-08-06T19:48:18.249Z,97789.41
2023-08-06T19:51:01.385Z,97797.22
2023-08-06T19:53:32.927Z,97798.69
2023-08-06T19:56:03.541Z,97805.69
2023-08-06T19:58:33.758Z,97813.84
2023-08-06T20:01:01.442Z,97805.31
2023-08-06T20:03:32.881Z,97799.53
2023-08-06T20:06:04.445Z,97804.91
2023-08-06T20:08:35.049Z,97806.41
2023-08-06T20:11:02.207Z,97811.31
2023-08-06T20:13:29.857Z,97816.25
2023-08-06T20:15:57.600Z,97816.25
2023-08-06T20:18:27.333Z,97821.13
2023-08-06T20:20:55.666Z,97819.72
2023-08-06T20:23:24.553Z,97810.66
2023-08-06T20:25:54.224Z,97819.13
2023-08-06T20:28:21.702Z,97814.97
2023-08-06T20:30:49.312Z,97808.31
2023-08-06T20:33:16.383Z,97808.47
2023-08-06T20:35:44.452Z,97809.03
2023-08-06T20:38:12.068Z,97808.56
2023-08-06T20:40:45.513Z,97804.03
2023-08-06T20:43:13.320Z,97799.03
2023-08-06T20:45:41.570Z,97803.91
2023-08-06T20:48:08.935Z,97803.78
2023-08-06T20:50:41.902Z,97811.91
2023-08-06T20:53:09.737Z,97816.16
2023-08-06T20:55:37.053Z,97820.84
2023-08-06T20:58:03.886Z,97820.03
2023-08-06T21:00:30.948Z,97821.50
2023-08-06T21:02:58.518Z,97818.75
2023-08-06T21:05:27.766Z,97821.37
2023-08-06T21:07:55.161Z,97818.63
2023-08-06T21:10:22.211Z,97813.91
2023-08-06T21:12:49.349Z,97810.69
2023-08-06T21:15:16.186Z,97813.44
2023-08-06T21:17:44.062Z,97810.22
2023-08-06T21:20:11.170Z,97803.72
2023-08-06T21:22:38.293Z,97809.91
2023-08-06T21:25:05.917Z,97813.81
2023-08-06T21:27:33.066Z,97825.00
2023-08-06T21:29:59.968Z,97836.50
2023-08-06T21:32:27.229Z,97834.09
2023-08-06T21:34:54.424Z,97836.69
2023-08-06T21:37:21.937Z,97840.91
2023-08-06T21:39:49.064Z,97827.81
2023-08-06T21:42:15.863Z,97844.16
2023-08-06T21:44:43.005Z,97840.12
2023-08-06T21:47:11.038Z,97842.06
2023-08-06T21:49:38.178Z,97834.81
2023-08-06T21:52:05.363Z,97841.31
2023-08-06T21:54:32.849Z,97839.53
2023-08-06T21:57:00.010Z,97836.00
2023-08-06T21:59:27.163Z,97838.91
2023-08-06T22:01:54.834Z,97847.34
2023-08-06T22:04:22.524Z,97846.53
2023-08-06T22:06:49.270Z,97852.69
2023-08-06T22:09:16.350Z,97856.41
2023-08-06T22:11:43.781Z,97853.81
2023-08-06T22:14:10.556Z,97850.44
2023-08-06T22:16:37.694Z,97860.47
2023-08-06T22:19:05.213Z,97857.56
2023-08-06T22:21:32.707Z,97858.22
2023-08-06T22:24:00.110Z,97861.63
2023-08-06T22:26:27.252Z,97859.84
2023-08-06T22:29:01.252Z,97863.56
2023-08-06T22:31:29.495Z,97866.13
2023-08-06T22:33:56.685Z,97865.34
2023-08-06T22:36:23.897Z,97872.63
2023-08-06T22:38:50.961Z,97875.06
2023-08-06T22:41:19.258Z,97867.31
2023-08-06T22:43:46.028Z,97864.38
2023-08-06T22:46:13.729Z,97869.69
2023-08-06T22:48:41.258Z,97871.62
2023-08-06T22:51:08.032Z,97872.28
2023-08-06T22:53:35.156Z,97869.38
2023-08-06T22:56:08.957Z,97860.66
2023-08-06T22:58:39.044Z,97865.66
2023-08-06T23:01:06.132Z,97867.13
2023-08-06T23:03:33.402Z,97867.13
2023-08-06T23:06:00.568Z,97871.31
2023-08-06T23:08:27.728Z,97878.28
2023-08-06T23:10:54.521Z,97877.44
2023-08-06T23:13:21.689Z,97869.69
2023-08-06T23:15:49.399Z,97871.28
2023-08-06T23:18:16.192Z,97880.16
2023-08-06T23:20:44.708Z,97868.66
2023-08-06T23:23:11.833Z,97871.56
2023-08-06T23:25:38.571Z,97873.69
2023-08-06T23:28:06.046Z,97874.00
2023-08-06T23:30:33.529Z,97864.63
2023-08-06T23:33:00.403Z,97875.09
2023-08-06T23:35:27.808Z,97867.81
2023-08-06T23:37:54.727Z,97871.06
2023-08-06T23:40:22.087Z,97885.09
2023-08-06T23:42:49.542Z,97880.75
2023-08-06T23:45:16.383Z,97874.13
2023-08-06T23:47:44.540Z,97886.25
2023-08-06T23:50:11.731Z,97885.44
2023-08-06T23:52:38.579Z,97884.94
2023-08-06T23:55:06.248Z,97886.06
2023-08-06T23:57:33.757Z,97886.22
